Time;durP1;ratioP1;P1;durP2;ratioP2;P2;SDS_P1;SDS_P2;PMS_P1;PMS_P2;Temp;Humidity;BMP_temperature;BMP_pressure;BME280_temperature;BME280_humidity;BME280_pressure;Samples;Min_cycle;Max_cycle;Signal;HPM_P1;HPM_P2
2022/05/26 00:01:08;;;;;;;0.10;0.10;;;;;;;22.48;57.21;100249.50;5037315;28;20083;-72
2022/05/26 00:03:39;;;;;;;0.10;0.10;;;;;;;22.54;57.01;100237.63;5020645;28;20120;-72
2022/05/26 00:06:07;;;;;;;0.10;0.10;;;;;;;22.53;55.74;100236.03;5054502;28;20083;-71
2022/05/26 00:08:34;;;;;;;0.10;0.10;;;;;;;22.51;56.35;100233.63;5037682;28;20044;-72
2022/05/26 00:11:00;;;;;;;0.10;0.10;;;;;;;22.33;55.83;100214.25;5037456;28;20100;-71
2022/05/26 00:13:26;;;;;;;0.10;0.10;;;;;;;22.39;56.04;100231.53;5054688;28;20033;-72
2022/05/26 00:15:52;;;;;;;0.10;0.10;;;;;;;22.40;55.39;100239.56;5037525;28;20086;-72
2022/05/26 00:18:18;;;;;;;0.10;0.10;;;;;;;22.32;54.52;100229.66;5037185;28;20531;-71
2022/05/26 00:20:44;;;;;;;0.10;0.10;;;;;;;22.29;54.31;100238.25;5036851;28;20131;-71
2022/05/26 00:23:10;;;;;;;0.10;0.10;;;;;;;22.18;53.83;100238.50;5037044;28;20048;-72
2022/05/26 00:25:36;;;;;;;0.10;0.10;;;;;;;22.15;52.97;100225.22;5035393;28;20116;-72
2022/05/26 00:28:02;;;;;;;0.10;0.10;;;;;;;22.07;52.77;100218.88;5035872;28;20057;-73
2022/05/26 00:30:28;;;;;;;0.10;0.10;;;;;;;22.05;52.50;100218.56;5036487;28;20032;-73
2022/05/26 00:32:53;;;;;;;0.10;0.10;;;;;;;22.01;52.77;100222.69;5036357;28;20025;-72
2022/05/26 00:35:19;;;;;;;0.10;0.10;;;;;;;22.10;52.00;100208.69;5036290;28;20036;-71
2022/05/26 00:37:46;;;;;;;0.10;0.10;;;;;;;22.02;51.71;100207.28;5036251;28;20025;-71
2022/05/26 00:40:13;;;;;;;0.10;0.10;;;;;;;21.95;51.13;100209.06;5036519;28;20028;-71
2022/05/26 00:42:40;;;;;;;0.10;0.10;;;;;;;21.83;51.96;100204.06;5036084;28;20076;-72
2022/05/26 00:45:07;;;;;;;0.10;0.10;;;;;;;21.81;51.45;100205.75;5036216;28;20082;-72
2022/05/26 00:47:39;;;;;;;0.13;0.13;;;;;;;21.74;51.00;100198.22;5036812;28;20115;-71
2022/05/26 00:50:20;;;;;;;0.10;0.10;;;;;;;21.67;50.71;100198.34;5036105;28;20131;-71
2022/05/26 00:52:54;;;;;;;0.10;0.10;;;;;;;21.68;49.57;100205.63;5054476;28;20029;-71
2022/05/26 00:55:26;;;;;;;0.10;0.10;;;;;;;21.63;50.10;100204.13;5036265;28;20120;-73
2022/05/26 00:58:03;;;;;;;0.10;0.10;;;;;;;21.60;50.33;100199.31;5036625;28;20051;-73
2022/05/26 01:00:34;;;;;;;0.10;0.10;;;;;;;21.33;49.80;100185.34;5036535;28;20025;-72
2022/05/26 01:03:16;;;;;;;0.10;0.10;;;;;;;21.33;50.36;100193.03;5035968;28;20494;-72
2022/05/26 01:06:06;;;;;;;0.10;0.10;;;;;;;21.57;48.98;100188.06;5035968;28;20056;-70
2022/05/26 01:08:40;;;;;;;0.10;0.10;;;;;;;21.76;48.71;100189.28;5035834;28;20087;-71
2022/05/26 01:11:07;;;;;;;0.10;0.10;;;;;;;21.61;49.03;100194.47;5035711;28;20447;-70
2022/05/26 01:13:39;;;;;;;0.10;0.10;;;;;;;21.64;48.48;100185.09;5035780;28;20028;-70
2022/05/26 01:16:10;;;;;;;0.10;0.10;;;;;;;21.62;49.16;100190.38;5035667;28;20032;-70
2022/05/26 01:19:07;;;;;;;0.10;0.10;;;;;;;21.55;49.32;100191.34;5036218;28;20083;-71
2022/05/26 01:21:39;;;;;;;0.20;0.20;;;;;;;21.55;49.07;100191.34;5034468;28;20456;-70
2022/05/26 01:24:08;;;;;;;0.10;0.10;;;;;;;21.59;49.24;100188.44;5035796;28;20479;-70
2022/05/26 01:26:48;;;;;;;0.10;0.10;;;;;;;21.58;49.20;100193.31;5035586;28;20061;-71
2022/05/26 01:29:23;;;;;;;0.10;0.10;;;;;;;21.56;49.20;100189.31;5035706;28;20087;-70
2022/05/26 01:32:08;;;;;;;0.10;0.10;;;;;;;21.53;48.76;100199.50;5035993;28;20033;-72
2022/05/26 01:34:34;;;;;;;0.10;0.10;;;;;;;21.54;49.12;100200.28;5035988;28;20056;-72
2022/05/26 01:37:05;;;;;;;0.10;0.10;;;;;;;21.59;48.46;100196.94;5034998;28;20495;-73
2022/05/26 01:39:34;;;;;;;0.10;0.10;;;;;;;21.70;47.78;100186.16;5035986;28;20120;-71
2022/05/26 01:42:10;;;;;;;0.10;0.10;;;;;;;21.67;47.61;100175.72;5035273;28;20036;-71
2022/05/26 01:44:51;;;;;;;0.13;0.13;;;;;;;21.59;47.14;100177.13;5035361;28;20029;-70
2022/05/26 01:47:38;;;;;;;0.10;0.10;;;;;;;21.56;46.91;100169.50;5036010;28;20051;-70
2022/05/26 01:50:18;;;;;;;0.10;0.10;;;;;;;21.51;46.88;100170.00;5035256;28;20025;-70
2022/05/26 01:52:56;;;;;;;0.10;0.10;;;;;;;21.51;46.68;100173.63;5035248;28;20111;-71
2022/05/26 01:55:30;;;;;;;0.10;0.10;;;;;;;21.45;46.71;100158.41;5035765;28;20056;-70
2022/05/26 01:58:10;;;;;;;0.10;0.10;;;;;;;21.25;46.65;100161.22;5035764;28;20055;-70
2022/05/26 02:00:37;;;;;;;0.10;0.10;;;;;;;21.29;46.52;100156.28;5035154;28;20021;-71
2022/05/26 02:03:09;;;;;;;0.10;0.10;;;;;;;21.20;46.80;100161.75;5035461;28;20459;-71
2022/05/26 02:05:41;;;;;;;0.10;0.10;;;;;;;21.23;46.88;100158.03;5035116;28;20035;-69
2022/05/26 02:08:16;;;;;;;0.10;0.10;;;;;;;21.14;47.25;100150.13;5035972;28;20482;-71
2022/05/26 02:10:54;;;;;;;0.10;0.10;;;;;;;21.16;47.71;100152.53;5035088;28;20025;-71
2022/05/26 02:13:36;;;;;;;0.10;0.10;;;;;;;21.17;47.80;100151.31;5035626;28;20025;-71
2022/05/26 02:16:20;;;;;;;0.10;0.10;;;;;;;21.28;47.91;100148.25;5020009;28;20040;-70
2022/05/26 02:18:53;;;;;;;0.10;0.10;;;;;;;21.25;48.13;100149.09;5035065;28;20040;-71
2022/05/26 02:21:38;;;;;;;0.10;0.10;;;;;;;21.16;48.69;100142.03;5035050;28;20028;-70
2022/05/26 02:24:22;;;;;;;0.10;0.10;;;;;;;21.18;48.82;100148.03;5034969;28;20035;-70
2022/05/26 02:26:49;;;;;;;0.20;0.20;;;;;;;21.16;48.87;100147.69;5031326;28;20064;-70
2022/05/26 02:39:07;;;;;;;0.10;0.10;;;;;;;20.98;48.24;100135.13;5032880;28;20538;-70
2022/05/26 02:42:24;;;;;;;0.10;0.10;;;;;;;21.08;47.50;100156.75;5032140;28;20440;-70
2022/05/26 02:44:51;;;;;;;0.10;0.10;;;;;;;20.97;47.69;100151.31;5033409;28;20079;-72
2022/05/26 02:54:49;;;;;;;0.10;0.10;;;;;;;21.11;48.10;100150.22;5022362;28;20044;-71
2022/05/26 03:00:55;;;;;;;0.10;0.10;;;;;;;21.11;48.34;100153.06;5036372;28;20037;-71
2022/05/26 03:03:42;;;;;;;0.10;0.10;;;;;;;21.21;48.30;100152.03;5035122;28;20029;-71
2022/05/26 03:09:32;;;;;;;0.10;0.10;;;;;;;21.19;48.93;100146.00;5036539;28;20037;-71
2022/05/26 03:12:27;;;;;;;0.20;0.20;;;;;;;21.23;48.70;100149.56;5034728;28;20029;-71
2022/05/26 03:15:30;;;;;;;0.10;0.10;;;;;;;21.27;48.71;100141.78;5034610;28;20029;-72
2022/05/26 03:18:54;;;;;;;0.10;0.10;;;;;;;21.25;48.73;100143.44;5027621;28;20071;-71
2022/05/26 03:21:19;;;;;;;0.10;0.10;;;;;;;21.19;49.26;100141.13;5036108;28;20453;-70
2022/05/26 03:23:45;;;;;;;0.10;0.10;;;;;;;21.15;48.78;100128.31;5034556;28;20033;-71
2022/05/26 03:26:10;;;;;;;0.10;0.10;;;;;;;21.13;48.78;100137.22;5034099;28;20050;-71
2022/05/26 03:28:36;;;;;;;0.10;0.10;;;;;;;21.15;48.60;100122.66;5034665;28;20040;-71
2022/05/26 03:31:06;;;;;;;0.10;0.10;;;;;;;21.20;48.83;100119.31;5034344;28;20476;-71
2022/05/26 03:40:46;;;;;;;0.10;0.10;;;;;;;21.19;48.23;100118.50;5035830;28;20080;-71
2022/05/26 03:41:45;;;;;;;0.10;0.10;;;;;;;21.41;47.43;100152.84;5035438;28;20415;-72
2022/05/26 03:44:11;;;;;;;0.10;0.10;;;;;;;21.47;47.37;100155.16;5034348;28;20033;-71
2022/05/26 03:46:38;;;;;;;0.10;0.10;;;;;;;21.49;47.50;100152.69;5033709;28;20029;-72
2022/05/26 03:49:04;;;;;;;0.10;0.10;;;;;;;21.49;47.45;100147.03;5034006;28;20467;-71
2022/05/26 03:51:30;;;;;;;0.10;0.10;;;;;;;21.54;46.99;100143.66;5033988;28;20029;-71
2022/05/26 03:53:56;;;;;;;0.10;0.10;;;;;;;21.55;46.95;100136.75;5033625;28;20052;-70
2022/05/26 03:56:21;;;;;;;0.10;0.10;;;;;;;21.64;46.85;100145.47;5034339;28;20041;-71
2022/05/26 03:58:47;;;;;;;0.10;0.10;;;;;;;21.71;46.60;100148.13;5033583;28;20392;-71
2022/05/26 04:01:12;;;;;;;0.10;0.10;;;;;;;21.74;46.09;100144.41;5034235;28;20033;-71
2022/05/26 04:03:39;;;;;;;0.10;0.10;;;;;;;21.77;45.80;100137.84;5035217;28;20037;-71
2022/05/26 04:06:04;;;;;;;0.10;0.10;;;;;;;21.88;44.94;100146.09;5033566;28;20026;-72
2022/05/26 04:08:30;;;;;;;0.10;0.10;;;;;;;22.09;44.96;100156.13;5033587;28;20052;-70
2022/05/26 04:10:55;;;;;;;0.10;0.10;;;;;;;22.24;44.87;100157.38;5033825;28;20061;-72
2022/05/26 04:13:21;;;;;;;0.10;0.10;;;;;;;22.39;44.97;100160.66;5033765;28;20044;-72
2022/05/26 04:15:46;;;;;;;0.10;0.10;;;;;;;22.46;45.07;100158.41;5033486;28;20037;-72
2022/05/26 04:18:12;;;;;;;0.10;0.10;;;;;;;22.49;44.83;100151.88;5033663;28;20068;-72
2022/05/26 04:20:38;;;;;;;0.10;0.10;;;;;;;22.51;44.98;100159.91;5033402;28;20452;-72
2022/05/26 04:23:04;;;;;;;0.10;0.10;;;;;;;22.54;44.95;100175.25;5033300;28;20079;-72
2022/05/26 04:25:30;;;;;;;0.10;0.10;;;;;;;22.68;44.82;100186.22;5033158;28;20068;-73
2022/05/26 04:27:56;;;;;;;0.10;0.10;;;;;;;22.61;45.15;100186.41;5032734;28;20065;-73
2022/05/26 04:30:23;;;;;;;0.10;0.10;;;;;;;22.61;45.20;100192.06;5033406;28;20033;-71
2022/05/26 04:32:50;;;;;;;0.10;0.10;;;;;;;22.64;45.25;100186.31;5032806;28;20460;-73
2022/05/26 04:35:16;;;;;;;0.10;0.10;;;;;;;22.67;44.25;100187.44;5033882;28;20116;-72
2022/05/26 04:37:41;;;;;;;0.10;0.10;;;;;;;22.78;43.80;100196.47;5033075;28;20511;-71
2022/05/26 04:40:09;;;;;;;0.10;0.10;;;;;;;22.86;43.13;100197.88;5033288;28;20030;-73
2022/05/26 04:42:36;;;;;;;0.10;0.10;;;;;;;22.85;42.98;100195.47;5034007;28;20034;-71
2022/05/26 04:45:01;;;;;;;0.10;0.10;;;;;;;22.91;43.05;100202.25;5032944;28;20035;-71
2022/05/26 04:47:27;;;;;;;0.10;0.10;;;;;;;22.93;42.53;100209.06;5032849;28;20112;-72
2022/05/26 04:49:53;;;;;;;0.10;0.10;;;;;;;23.02;42.20;100208.44;5032869;28;20095;-71
2022/05/26 04:52:21;;;;;;;0.10;0.10;;;;;;;23.09;41.69;100216.72;5032805;28;20033;-73
2022/05/26 04:54:47;;;;;;;0.10;0.10;;;;;;;23.14;40.97;100229.56;5032743;28;20610;-73
2022/05/26 04:57:15;;;;;;;0.10;0.10;;;;;;;23.29;41.43;100224.31;5032198;28;20049;-72
2022/05/26 04:59:41;;;;;;;0.10;0.10;;;;;;;23.37;41.20;100237.81;5032668;28;20061;-72
2022/05/26 05:02:12;;;;;;;0.10;0.10;;;;;;;23.50;40.58;100237.88;5032632;28;20087;-71
2022/05/26 05:04:41;;;;;;;0.10;0.10;;;;;;;23.61;40.16;100234.72;5033189;28;20415;-71
2022/05/26 05:07:09;;;;;;;0.10;0.10;;;;;;;23.77;40.21;100246.03;5033170;28;20044;-72
2022/05/26 05:09:36;;;;;;;0.10;0.10;;;;;;;23.89;39.54;100244.44;5032541;28;20029;-73
2022/05/26 05:12:03;;;;;;;0.10;0.10;;;;;;;24.03;38.88;100232.66;5031834;28;20034;-72
2022/05/26 05:14:34;;;;;;;0.10;0.10;;;;;;;24.21;38.54;100237.75;5032311;28;20079;-74
2022/05/26 05:16:59;;;;;;;0.10;0.10;;;;;;;24.41;38.21;100246.06;5032205;28;20061;-72
2022/05/26 05:19:25;;;;;;;0.10;0.10;;;;;;;24.65;38.54;100255.81;5032250;28;20057;-71
2022/05/26 05:22:01;;;;;;;0.10;0.10;;;;;;;24.90;38.14;100257.00;5032188;28;20120;-71
2022/05/26 05:40:48;;;;;;;0.10;0.10;;;;;;;26.30;35.57;100261.94;5122532;27;20466;-73
2022/05/26 05:43:14;;;;;;;0.10;0.10;;;;;;;26.47;35.92;100271.84;5090784;28;20036;-71
2022/05/26 05:45:40;;;;;;;0.10;0.10;;;;;;;26.54;36.09;100274.44;5090657;28;20459;-71
2022/05/26 05:48:07;;;;;;;0.10;0.10;;;;;;;26.60;36.01;100266.84;5089416;28;20036;-73
2022/05/26 05:50:32;;;;;;;0.10;0.10;;;;;;;26.48;35.73;100264.91;5072632;28;20035;-73
2022/05/26 05:52:58;;;;;;;0.10;0.10;;;;;;;26.74;35.70;100284.63;5089419;28;20040;-73
2022/05/26 05:55:25;;;;;;;0.10;0.10;;;;;;;26.86;35.76;100293.06;5089685;28;20020;-73
2022/05/26 05:57:51;;;;;;;0.10;0.10;;;;;;;26.99;35.20;100277.84;5089325;28;20060;-73
2022/05/26 06:00:17;;;;;;;0.10;0.10;;;;;;;27.84;34.67;100293.28;5089824;28;20060;-74
2022/05/26 06:02:45;;;;;;;0.10;0.10;;;;;;;28.40;33.46;100301.22;5089135;28;20043;-73
2022/05/26 06:05:10;;;;;;;0.10;0.10;;;;;;;28.61;31.76;100296.53;5089617;28;20033;-73
2022/05/26 06:07:39;;;;;;;0.10;0.10;;;;;;;28.74;30.58;100293.41;5090420;28;20029;-73
2022/05/26 06:10:07;;;;;;;0.10;0.10;;;;;;;29.48;30.46;100326.03;5088899;28;20020;-73
2022/05/26 06:12:32;;;;;;;0.10;0.10;;;;;;;29.44;30.96;100322.53;5089490;28;20048;-73
2022/05/26 06:14:58;;;;;;;0.10;0.10;;;;;;;29.60;30.96;100324.19;5089525;28;20486;-73
2022/05/26 06:17:23;;;;;;;0.10;0.10;;;;;;;30.05;29.62;100335.72;5088996;28;20033;-73
2022/05/26 06:19:49;;;;;;;0.10;0.10;;;;;;;30.64;28.62;100329.94;5088532;28;20498;-73
2022/05/26 06:22:20;;;;;;;0.10;0.10;;;;;;;31.24;27.20;100342.81;5088827;28;20117;-73
2022/05/26 06:24:46;;;;;;;0.10;0.10;;;;;;;31.73;25.90;100344.75;5089694;28;20042;-73
2022/05/26 06:30:00;;;;;;;0.10;0.10;;;;;;;32.66;24.89;100344.59;5089118;28;20043;-73
2022/05/26 06:38:00;;;;;;;0.10;0.10;;;;;;;32.88;23.24;100358.38;5089998;28;20110;-72
2022/05/26 06:40:28;;;;;;;0.10;0.10;;;;;;;32.51;23.24;100358.34;5081752;28;20055;-72
2022/05/26 06:42:55;;;;;;;0.10;0.10;;;;;;;32.08;23.60;100356.13;5076331;28;20021;-72
2022/05/26 06:45:22;;;;;;;0.10;0.10;;;;;;;32.96;23.38;100367.34;5076262;28;20357;-73
2022/05/26 06:47:48;;;;;;;0.10;0.10;;;;;;;32.36;23.97;100367.13;5074924;28;20042;-73
2022/05/26 06:50:14;;;;;;;0.10;0.10;;;;;;;31.92;24.57;100368.25;5075052;28;20032;-73
2022/05/26 06:52:40;;;;;;;0.10;0.10;;;;;;;32.25;23.28;100367.00;5074608;28;20107;-73
2022/05/26 06:55:07;;;;;;;0.10;0.10;;;;;;;32.01;23.93;100370.16;5075638;28;20124;-73
2022/05/26 06:57:33;;;;;;;0.10;0.10;;;;;;;32.00;23.99;100362.84;5074694;28;20094;-72
2022/05/26 07:00:00;;;;;;;0.10;0.10;;;;;;;32.56;23.93;100369.91;5074798;28;20036;-72
2022/05/26 07:02:26;;;;;;;0.10;0.10;;;;;;;32.48;23.91;100379.53;5075528;28;20063;-73
2022/05/26 07:04:51;;;;;;;0.10;0.10;;;;;;;32.11;24.42;100385.19;5074209;28;20048;-72
2022/05/26 07:07:17;;;;;;;0.10;0.10;;;;;;;32.12;24.28;100387.56;5058179;28;20111;-73
2022/05/26 07:09:43;;;;;;;0.10;0.10;;;;;;;32.62;23.73;100367.09;5074334;28;20032;-72
2022/05/26 07:12:10;;;;;;;0.10;0.10;;;;;;;33.50;22.66;100387.56;5076117;28;20017;-73
2022/05/26 07:14:36;;;;;;;0.10;0.10;;;;;;;32.83;23.14;100390.81;5075335;28;20123;-73
2022/05/26 07:17:01;;;;;;;0.10;0.10;;;;;;;32.97;22.33;100392.78;5057692;28;20063;-72
2022/05/26 07:19:27;;;;;;;0.10;0.10;;;;;;;33.28;23.20;100399.75;5074171;28;20488;-73
2022/05/26 07:21:53;;;;;;;0.10;0.10;;;;;;;33.50;22.82;100399.88;5075768;28;20070;-73
2022/05/26 07:24:21;;;;;;;0.10;0.10;;;;;;;32.84;23.96;100401.81;5074137;28;20029;-73
2022/05/26 07:26:47;;;;;;;0.10;0.10;;;;;;;32.67;24.37;100406.66;5075667;28;20085;-73
2022/05/26 07:29:14;;;;;;;0.10;0.10;;;;;;;33.08;23.67;100394.94;5073882;28;20056;-73
2022/05/26 07:31:40;;;;;;;0.10;0.10;;;;;;;33.40;23.40;100406.34;5075655;28;20104;-73
2022/05/26 07:34:05;;;;;;;0.10;0.10;;;;;;;32.61;24.44;100399.28;5073831;28;20548;-73
2022/05/26 07:42:03;;;;;;;0.10;0.10;;;;;;;32.05;25.65;100402.38;5075026;28;20410;-72
2022/05/26 07:44:35;;;;;;;0.00;0.00;;;;;;;31.76;25.84;100412.78;5073966;28;20555;-72
2022/05/26 07:47:05;;;;;;;0.10;0.10;;;;;;;31.66;26.50;100413.44;5075038;28;20451;-72
2022/05/26 07:49:33;;;;;;;0.10;0.10;;;;;;;32.03;26.21;100419.38;5073530;28;20021;-73
2022/05/26 07:52:01;;;;;;;0.10;0.10;;;;;;;32.57;25.02;100416.78;5072665;28;20119;-73
2022/05/26 07:54:27;;;;;;;0.10;0.10;;;;;;;32.13;24.93;100428.66;5073677;28;20059;-73
2022/05/26 07:56:53;;;;;;;0.10;0.10;;;;;;;33.04;23.68;100421.09;5074599;28;20422;-72
2022/05/26 07:59:19;;;;;;;0.10;0.10;;;;;;;33.27;23.40;100419.16;5073592;28;20028;-72
2022/05/26 08:01:44;;;;;;;0.10;0.10;;;;;;;33.25;22.91;100418.88;5074891;28;20051;-72
2022/05/26 08:04:10;;;;;;;0.10;0.10;;;;;;;33.07;23.56;100407.75;5073370;28;20388;-72
2022/05/26 08:06:38;;;;;;;0.10;0.10;;;;;;;32.82;24.36;100412.28;5074829;28;20062;-72
2022/05/26 08:09:03;;;;;;;0.10;0.10;;;;;;;33.10;24.93;100412.50;5073430;28;20028;-73
2022/05/26 08:11:29;;;;;;;0.10;0.10;;;;;;;33.40;25.10;100412.94;5073349;28;20051;-73
2022/05/26 08:13:55;;;;;;;0.10;0.10;;;;;;;34.22;24.41;100417.97;5073180;28;20031;-72
2022/05/26 08:16:20;;;;;;;0.10;0.10;;;;;;;34.34;24.85;100416.69;5073560;28;20043;-72
2022/05/26 08:18:46;;;;;;;0.10;0.10;;;;;;;34.25;25.30;100420.63;5072728;28;20044;-72
2022/05/26 08:21:16;;;;;;;0.10;0.10;;;;;;;33.84;24.29;100418.13;5073045;28;20029;-72
2022/05/26 08:23:41;;;;;;;0.10;0.10;;;;;;;33.79;24.78;100418.91;5073990;28;20059;-72
2022/05/26 08:26:07;;;;;;;0.10;0.10;;;;;;;34.09;24.28;100422.16;5072915;28;20032;-72
2022/05/26 08:28:33;;;;;;;0.10;0.10;;;;;;;34.49;23.97;100420.13;5072915;28;20085;-73
2022/05/26 08:31:02;;;;;;;0.10;0.10;;;;;;;33.72;24.21;100410.75;5073136;28;20020;-72
2022/05/26 08:33:28;;;;;;;0.10;0.10;;;;;;;33.42;24.59;100409.56;5072753;28;20033;-72
2022/05/26 08:36:10;;;;;;;0.10;0.10;;;;;;;34.25;24.37;100400.41;5072696;28;20357;-72
2022/05/26 08:38:36;;;;;;;0.10;0.10;;;;;;;33.75;24.41;100408.91;5056398;28;20040;-72
2022/05/26 08:41:04;;;;;;;0.10;0.10;;;;;;;34.08;22.65;100402.47;5072496;28;20051;-72
2022/05/26 08:43:36;;;;;;;0.10;0.10;;;;;;;34.99;20.98;100409.88;5072505;28;20111;-72
2022/05/26 08:46:07;;;;;;;0.00;0.00;;;;;;;34.63;21.16;100421.19;5074017;28;20082;-73
2022/05/26 08:48:41;;;;;;;0.10;0.10;;;;;;;34.87;21.53;100414.88;5072866;28;20051;-72
2022/05/26 08:51:11;;;;;;;0.10;0.10;;;;;;;35.15;21.26;100417.72;5073804;28;20457;-72
2022/05/26 08:53:40;;;;;;;0.10;0.10;;;;;;;35.22;21.63;100417.22;5072453;28;20028;-72
2022/05/26 08:56:11;;;;;;;0.10;0.10;;;;;;;35.49;20.89;100412.69;5072016;28;20127;-72
2022/05/26 08:58:46;;;;;;;0.10;0.10;;;;;;;35.59;20.43;100416.06;5073919;28;20028;-73
2022/05/26 09:01:16;;;;;;;0.10;0.10;;;;;;;35.67;19.99;100412.06;5072372;28;20118;-73
2022/05/26 09:03:42;;;;;;;0.10;0.10;;;;;;;36.09;19.70;100410.03;5073569;28;20476;-73
2022/05/26 09:06:17;;;;;;;0.10;0.10;;;;;;;36.71;19.59;100410.38;5072307;28;20029;-72
2022/05/26 09:14:30;;;;;;;0.10;0.10;;;;;;;35.77;19.16;100409.66;5073811;28;20052;-73
2022/05/26 09:16:58;;;;;;;0.00;0.00;;;;;;;34.67;20.61;100407.25;5072713;28;20035;-72
2022/05/26 09:19:29;;;;;;;0.10;0.10;;;;;;;34.76;20.64;100412.00;5072316;28;20074;-72
2022/05/26 09:21:55;;;;;;;0.10;0.10;;;;;;;35.80;19.47;100404.94;5072193;28;20085;-71
2022/05/26 09:24:30;;;;;;;0.10;0.10;;;;;;;35.89;19.46;100407.47;5072996;28;20024;-71
2022/05/26 09:27:04;;;;;;;0.10;0.10;;;;;;;36.06;19.44;100405.31;5073593;28;20036;-72
2022/05/26 09:29:34;;;;;;;0.10;0.10;;;;;;;35.36;20.48;100397.97;5072653;28;20020;-71
2022/05/26 09:32:01;;;;;;;0.10;0.10;;;;;;;34.85;20.51;100403.06;5072032;28;20032;-73
2022/05/26 09:34:32;;;;;;;0.10;0.10;;;;;;;34.98;20.48;100394.66;5071974;28;20028;-72
2022/05/26 09:37:03;;;;;;;0.10;0.10;;;;;;;34.68;21.05;100408.84;5073417;28;20488;-73
2022/05/26 09:39:39;;;;;;;0.10;0.10;;;;;;;34.93;20.39;100390.41;5073218;28;20049;-73
2022/05/26 09:42:28;;;;;;;0.10;0.10;;;;;;;34.30;20.59;100393.81;5073786;28;20025;-73
2022/05/26 09:45:06;;;;;;;0.10;0.10;;;;;;;34.35;20.28;100398.81;5066122;28;20047;-73
2022/05/26 09:47:57;;;;;;;0.10;0.10;;;;;;;34.71;18.88;100404.91;5072407;28;20131;-74
2022/05/26 09:50:37;;;;;;;0.10;0.10;;;;;;;34.77;20.65;100399.13;5071823;28;20468;-71
2022/05/26 09:53:10;;;;;;;0.10;0.10;;;;;;;34.90;20.00;100402.25;5071861;28;20112;-73
2022/05/26 09:56:01;;;;;;;0.10;0.10;;;;;;;35.63;19.49;100396.28;5072847;28;20103;-74
2022/05/26 09:58:30;;;;;;;0.10;0.10;;;;;;;36.39;18.46;100394.81;5070253;28;20369;-73
2022/05/26 10:00:59;;;;;;;0.10;0.10;;;;;;;36.35;18.32;100394.31;5072247;28;20036;-72
2022/05/26 10:03:41;;;;;;;0.10;0.10;;;;;;;36.11;19.29;100406.59;5072272;28;20131;-73
2022/05/26 10:06:22;;;;;;;0.10;0.10;;;;;;;36.00;19.53;100400.88;5071732;28;20028;-72
2022/05/26 10:09:26;;;;;;;0.10;0.10;;;;;;;36.10;20.07;100400.00;5072209;28;20102;-73
2022/05/26 10:12:01;;;;;;;0.10;0.10;;;;;;;35.07;21.13;100393.59;5050849;28;20468;-72
2022/05/26 10:14:29;;;;;;;0.10;0.10;;;;;;;35.47;20.40;100385.59;5034389;28;20499;-73
2022/05/26 10:17:26;;;;;;;0.10;0.10;;;;;;;36.10;20.55;100400.00;5056673;28;20362;-72
2022/05/26 10:20:11;;;;;;;0.10;0.10;;;;;;;36.49;19.82;100392.38;5074510;28;20048;-73
2022/05/26 10:22:55;;;;;;;0.10;0.10;;;;;;;35.85;19.10;100399.09;5076347;28;20028;-72
2022/05/26 10:25:25;;;;;;;0.10;0.10;;;;;;;35.53;18.29;100395.03;5075571;28;20081;-72
2022/05/26 10:28:14;;;;;;;0.10;0.10;;;;;;;35.00;19.50;100397.03;5075464;28;20190;-72
2022/05/26 10:30:52;;;;;;;0.00;0.00;;;;;;;34.79;19.68;100385.72;5075134;28;20111;-73
2022/05/26 10:33:24;;;;;;;0.10;0.10;;;;;;;35.42;17.93;100396.66;5075157;28;20063;-72
2022/05/26 10:36:08;;;;;;;0.10;0.10;;;;;;;36.36;18.00;100382.19;5075877;28;20471;-73
2022/05/26 10:38:43;;;;;;;0.10;0.10;;;;;;;37.35;17.32;100398.41;5074813;28;20036;-72
2022/05/26 10:41:36;;;;;;;0.10;0.10;;;;;;;37.13;17.21;100390.75;5075528;28;20123;-73
2022/05/26 10:44:15;;;;;;;0.10;0.10;;;;;;;37.29;17.35;100399.78;5075921;28;20031;-72
2022/05/26 10:46:46;;;;;;;0.10;0.10;;;;;;;36.63;18.16;100405.69;5075066;28;20033;-72
2022/05/26 10:49:31;;;;;;;0.10;0.10;;;;;;;36.34;17.75;100404.34;5075104;28;20041;-73
2022/05/26 10:52:21;;;;;;;0.10;0.10;;;;;;;36.32;17.70;100395.38;5076637;28;20518;-73
2022/05/26 10:55:17;;;;;;;0.10;0.10;;;;;;;35.97;18.52;100404.84;5073941;28;20045;-73
2022/05/26 10:57:59;;;;;;;0.10;0.10;;;;;;;35.80;20.77;100408.59;5075188;28;20372;-72
2022/05/26 11:00:28;;;;;;;0.10;0.10;;;;;;;35.43;21.87;100380.84;5074543;28;20028;-72
2022/05/26 11:03:11;;;;;;;0.10;0.10;;;;;;;36.04;21.44;100398.47;5075758;28;20141;-72
2022/05/26 11:05:45;;;;;;;0.10;0.10;;;;;;;36.05;21.31;100406.63;5074287;28;20127;-72
2022/05/26 11:08:33;;;;;;;0.10;0.10;;;;;;;36.17;19.50;100407.38;5075889;28;20032;-72
2022/05/26 11:11:10;;;;;;;0.10;0.10;;;;;;;36.29;20.57;100393.59;5076059;28;20063;-72
2022/05/26 11:13:54;;;;;;;0.10;0.10;;;;;;;36.46;21.62;100395.03;5074437;28;20089;-71
2022/05/26 11:19:38;;;;;;;0.10;0.10;;;;;;;36.46;20.15;100395.03;5075557;28;20102;-73
2022/05/26 11:22:04;;;;;;;0.10;0.10;;;;;;;36.42;20.25;100382.16;5057827;28;20404;-72
2022/05/26 11:24:30;;;;;;;0.10;0.10;;;;;;;36.66;19.70;100395.94;5074450;28;20115;-73
2022/05/26 11:27:17;;;;;;;0.10;0.10;;;;;;;35.70;20.46;100375.50;5075249;28;20032;-72
2022/05/26 11:30:06;;;;;;;0.10;0.10;;;;;;;35.77;21.42;100382.81;5074530;28;20102;-72
2022/05/26 11:38:48;;;;;;;0.10;0.10;;;;;;;35.21;21.27;100386.72;5075983;28;20051;-72
2022/05/26 11:41:25;;;;;;;0.10;0.10;;;;;;;35.49;21.42;100388.75;5073907;28;20033;-72
2022/05/26 11:44:06;;;;;;;0.10;0.10;;;;;;;35.51;20.80;100378.22;5074134;28;20376;-72
2022/05/26 11:46:56;;;;;;;0.10;0.10;;;;;;;35.46;20.20;100360.88;5073293;28;20025;-73
2022/05/26 11:49:43;;;;;;;0.10;0.10;;;;;;;35.21;21.10;100374.34;5075009;28;20020;-72
2022/05/26 11:52:24;;;;;;;0.10;0.10;;;;;;;35.41;19.94;100365.34;5073708;28;20088;-73
2022/05/26 11:54:52;;;;;;;0.10;0.10;;;;;;;35.05;20.35;100349.94;5074402;28;20051;-73
2022/05/26 11:57:34;;;;;;;0.10;0.10;;;;;;;35.70;19.56;100361.03;5073902;28;20032;-73
2022/05/26 12:00:40;;;;;;;0.10;0.10;;;;;;;35.83;19.05;100361.19;5074438;28;20025;-73
2022/05/26 12:03:23;;;;;;;0.00;0.00;;;;;;;35.77;18.78;100354.66;5075088;28;20520;-73
2022/05/26 12:05:57;;;;;;;0.10;0.10;;;;;;;36.08;19.39;100346.88;5073456;28;20043;-73
2022/05/26 12:08:39;;;;;;;0.10;0.10;;;;;;;35.81;20.21;100355.19;5073326;28;20120;-73
2022/05/26 12:11:12;;;;;;;0.10;0.10;;;;;;;35.43;20.60;100349.03;5073309;28;20028;-74
2022/05/26 12:14:02;;;;;;;0.10;0.10;;;;;;;35.30;20.65;100343.03;5074264;28;20043;-74
2022/05/26 12:16:29;;;;;;;0.10;0.10;;;;;;;35.98;20.08;100346.41;5073324;28;20028;-73
2022/05/26 12:19:01;;;;;;;0.10;0.10;;;;;;;36.21;19.93;100355.72;5073541;28;20025;-71
2022/05/26 12:21:29;;;;;;;0.10;0.10;;;;;;;35.79;19.80;100334.63;5074156;28;20476;-73
2022/05/26 12:23:56;;;;;;;0.10;0.10;;;;;;;35.43;19.91;100348.25;5073135;28;20068;-73
2022/05/26 12:26:29;;;;;;;0.10;0.10;;;;;;;35.59;19.17;100335.84;5072854;28;20115;-74
2022/05/26 12:29:36;;;;;;;0.10;0.10;;;;;;;35.66;18.63;100343.16;5074683;28;20029;-73
2022/05/26 12:32:29;;;;;;;0.10;0.10;;;;;;;35.29;18.40;100338.56;5072208;28;20025;-72
2022/05/26 12:35:32;;;;;;;0.10;0.10;;;;;;;34.59;19.63;100337.69;5074285;28;20031;-72
2022/05/26 12:38:06;;;;;;;0.10;0.10;;;;;;;34.33;20.23;100322.69;5072541;28;20556;-72
2022/05/26 12:40:54;;;;;;;0.10;0.10;;;;;;;34.89;20.40;100332.09;5072283;28;20186;-72
2022/05/26 12:43:50;;;;;;;0.10;0.10;;;;;;;35.25;19.19;100332.25;5072395;28;20070;-71
2022/05/26 12:46:51;;;;;;;0.10;0.10;;;;;;;35.59;19.47;100338.72;5069491;28;20039;-73
2022/05/26 12:49:16;;;;;;;0.10;0.10;;;;;;;35.29;19.98;100329.88;5069667;28;20361;-73
2022/05/26 12:51:42;;;;;;;0.10;0.10;;;;;;;34.75;20.90;100326.63;5073884;28;20082;-73
2022/05/26 12:54:18;;;;;;;0.10;0.10;;;;;;;34.78;20.68;100325.53;5073482;28;20024;-71
2022/05/26 12:56:54;;;;;;;0.10;0.10;;;;;;;34.87;19.08;100322.38;5074050;28;20028;-71
2022/05/26 12:59:32;;;;;;;0.10;0.10;;;;;;;34.99;19.30;100318.16;5072743;28;20035;-71
2022/05/26 13:01:58;;;;;;;0.10;0.10;;;;;;;35.08;18.05;100319.97;5073326;28;20060;-71
2022/05/26 13:04:32;;;;;;;0.10;0.10;;;;;;;34.70;18.27;100312.97;5073779;28;20119;-71